Evanston, Wyoming
Current Conditions -  °F | °C
As of 11:53 PM on Tuesday 21 Oct 2014 (Local Time) from KEVW Reporting Station
Clear Clear  
Wind Chill: 34°   Ceiling: Unl
Heat Index: 38°   Visibility: 10mi
Dew Point: 25°   Wind: 5mph
Humidity: 60%   Direction: 10°N
Pressure: 30.14"   Gusts: NA
Location:  41.27°N, 110.96°W
Report Text: KEVW 220553Z AUTO 01004KT 10SM CLR 03/M04 A3014 RMK AO2 SLP157 T00331039 10089 20028 53008 TSNO
Loading
Personal Weather Stations






























Interactive Weather Map
Tropical Storm Tracking
New forecast layout! Learn more

10-Day Weather Forecast

Advertisements
Track Severe Weather on mobile